createdAt,value
2024-04-07T00:02:17.454Z,12.92
2024-04-07T00:04:49.120Z,12.87
2024-04-07T00:07:19.428Z,12.86
2024-04-07T00:09:52.008Z,12.85
2024-04-07T00:12:23.058Z,12.85
2024-04-07T00:14:54.704Z,12.88
2024-04-07T00:17:25.744Z,12.91
2024-04-07T00:19:57.910Z,12.94
2024-04-07T00:22:29.047Z,12.95
2024-04-07T00:25:00.710Z,12.94
2024-04-07T00:27:31.137Z,12.93
2024-04-07T00:30:02.997Z,12.90
2024-04-07T00:32:33.469Z,12.87
2024-04-07T00:35:05.424Z,12.84
2024-04-07T00:37:35.912Z,12.82
2024-04-07T00:40:08.857Z,12.80
2024-04-07T00:42:39.225Z,12.81
2024-04-07T00:45:11.084Z,12.82
2024-04-07T00:47:41.508Z,12.81
2024-04-07T00:50:13.273Z,12.82
2024-04-07T00:52:43.710Z,12.81
2024-04-07T00:55:16.728Z,12.81
2024-04-07T00:57:48.534Z,12.82
2024-04-07T01:00:20.185Z,12.81
2024-04-07T01:02:50.517Z,12.80
2024-04-07T01:05:22.584Z,12.79
2024-04-07T01:07:52.799Z,12.80
2024-04-07T01:10:24.871Z,12.78
2024-04-07T01:12:55.303Z,12.75
2024-04-07T01:15:26.943Z,12.72
2024-04-07T01:17:58.452Z,12.70
2024-04-07T01:20:30.354Z,12.70
2024-04-07T01:23:01.410Z,12.68
2024-04-07T01:25:33.155Z,12.68
2024-04-07T01:28:05.902Z,12.67
2024-04-07T01:30:37.897Z,12.66
2024-04-07T01:33:08.328Z,12.68
2024-04-07T01:35:39.979Z,12.67
2024-04-07T01:38:10.412Z,12.66
2024-04-07T01:40:42.071Z,12.62
2024-04-07T01:43:12.493Z,12.56
2024-04-07T01:45:44.351Z,12.51
2024-04-07T01:48:14.771Z,12.48
2024-04-07T01:50:49.019Z,12.47
2024-04-07T01:53:19.521Z,12.49
2024-04-07T01:55:51.273Z,12.50
2024-04-07T01:58:22.726Z,12.52
2024-04-07T02:00:56.016Z,12.52
2024-04-07T02:03:26.346Z,12.50
2024-04-07T02:05:58.197Z,12.46
2024-04-07T02:08:28.902Z,12.41
2024-04-07T02:11:00.529Z,12.35
2024-04-07T02:13:31.223Z,12.30
2024-04-07T02:16:03.086Z,12.26
2024-04-07T02:18:33.505Z,12.24
2024-04-07T02:21:05.169Z,12.23
2024-04-07T02:23:35.690Z,12.25
2024-04-07T02:26:08.779Z,12.30
2024-04-07T02:28:39.420Z,12.35
2024-04-07T02:31:11.176Z,12.42
2024-04-07T02:33:41.696Z,12.44
2024-04-07T02:36:16.530Z,12.45
2024-04-07T02:38:49.414Z,12.46
2024-04-07T02:41:19.836Z,12.47
2024-04-07T02:43:51.530Z,12.47
2024-04-07T02:46:40.765Z,12.38
2024-04-07T02:49:12.621Z,12.28
2024-04-07T02:51:43.052Z,12.20
2024-04-07T02:54:15.110Z,12.16
2024-04-07T02:56:45.440Z,12.15
2024-04-07T02:59:17.299Z,12.15
2024-04-07T03:01:47.978Z,12.16
2024-04-07T03:04:20.740Z,12.16
2024-04-07T03:06:52.885Z,12.16
2024-04-07T03:09:24.631Z,12.17
2024-04-07T03:11:55.060Z,12.18
2024-04-07T03:14:26.824Z,12.19
2024-04-07T03:17:01.319Z,12.22
2024-04-07T03:19:33.513Z,12.22
2024-04-07T03:22:04.308Z,12.21
2024-04-07T03:24:35.992Z,12.16
2024-04-07T03:27:06.732Z,12.13
2024-04-07T03:29:38.798Z,12.15
2024-04-07T03:32:09.231Z,12.19
2024-04-07T03:34:40.873Z,12.22
2024-04-07T03:37:11.704Z,12.23
2024-04-07T03:39:43.374Z,12.23
2024-04-07T03:42:13.697Z,12.22
2024-04-07T03:44:45.451Z,12.21
2024-04-07T03:47:16.283Z,12.19
2024-04-07T03:49:48.337Z,12.17
2024-04-07T03:52:19.899Z,12.13
2024-04-07T03:54:52.476Z,12.08
2024-04-07T03:57:23.520Z,12.05
2024-04-07T03:59:55.480Z,12.03
2024-04-07T04:02:32.427Z,12.06
2024-04-07T04:05:04.654Z,12.09
2024-04-07T04:07:35.153Z,12.10
2024-04-07T04:10:08.493Z,12.12
2024-04-07T04:12:39.074Z,12.14
2024-04-07T04:15:10.934Z,12.13
2024-04-07T04:17:41.162Z,12.14
2024-04-07T04:20:13.227Z,12.17
2024-04-07T04:22:46.408Z,12.20
2024-04-07T04:25:18.589Z,12.26
2024-04-07T04:27:49.007Z,12.34
2024-04-07T04:30:20.667Z,12.44
2024-04-07T04:32:51.092Z,12.54
2024-04-07T04:35:22.748Z,12.66
2024-04-07T04:37:53.324Z,12.79
2024-04-07T04:40:25.651Z,12.95
2024-04-07T04:42:55.968Z,13.12
2024-04-07T04:45:27.727Z,13.25
2024-04-07T04:47:57.951Z,13.38
2024-04-07T04:50:29.812Z,13.49
2024-04-07T04:53:00.249Z,13.59
2024-04-07T04:55:34.857Z,13.70
2024-04-07T04:58:07.945Z,13.85
2024-04-07T05:00:38.585Z,14.03
2024-04-07T05:03:10.234Z,14.20
2024-04-07T05:05:41.171Z,14.30
2024-04-07T05:08:12.932Z,14.43
2024-04-07T05:10:43.683Z,14.53
2024-04-07T05:13:15.424Z,14.60
2024-04-07T05:15:51.344Z,14.65
2024-04-07T05:18:22.935Z,14.73
2024-04-07T05:20:54.344Z,14.85
2024-04-07T05:23:26.035Z,15.00
2024-04-07T05:25:56.490Z,15.34
2024-04-07T05:28:28.706Z,16.51
2024-04-07T05:31:02.022Z,18.26
2024-04-07T05:33:34.409Z,20.00
2024-04-07T05:36:06.626Z,21.61
2024-04-07T05:38:42.415Z,23.47
2024-04-07T05:41:14.172Z,25.07
2024-04-07T05:43:45.524Z,26.26
2024-04-07T05:46:17.478Z,27.48
2024-04-07T05:48:49.609Z,28.72
2024-04-07T05:51:21.514Z,29.62
2024-04-07T05:53:51.837Z,30.14
2024-04-07T05:56:23.796Z,30.10
2024-04-07T05:58:54.158Z,30.26
2024-04-07T06:01:25.983Z,30.54
2024-04-07T06:03:56.406Z,30.77
2024-04-07T06:06:28.060Z,30.69
2024-04-07T06:08:58.799Z,30.44
2024-04-07T06:11:30.865Z,30.13
2024-04-07T06:14:01.387Z,30.20
2024-04-07T06:16:33.037Z,30.63
2024-04-07T06:19:03.364Z,30.99
2024-04-07T06:21:35.124Z,31.17
2024-04-07T06:24:06.063Z,31.63
2024-04-07T06:26:37.819Z,31.81
2024-04-07T06:29:08.245Z,31.86
2024-04-07T06:31:40.202Z,31.98
2024-04-07T06:34:10.631Z,32.08
2024-04-07T06:36:42.491Z,32.23
2024-04-07T06:39:12.915Z,31.98
2024-04-07T06:41:44.576Z,31.62
2024-04-07T06:44:14.899Z,31.21
2024-04-07T06:46:46.562Z,30.68
2024-04-07T06:49:17.396Z,30.08
2024-04-07T06:51:49.038Z,29.49
2024-04-07T06:54:19.471Z,28.92
2024-04-07T06:56:51.138Z,28.26
2024-04-07T06:59:21.656Z,27.44
2024-04-07T07:01:53.327Z,26.67
2024-04-07T07:04:24.046Z,26.21
2024-04-07T07:06:55.806Z,25.87
2024-04-07T07:09:28.458Z,25.62
2024-04-07T07:12:00.646Z,25.29
2024-04-07T07:14:31.180Z,25.06
2024-04-07T07:17:02.826Z,24.76
2024-04-07T07:19:33.267Z,24.61
2024-04-07T07:22:05.288Z,24.37
2024-04-07T07:24:35.948Z,24.09
2024-04-07T07:27:07.712Z,23.90
2024-04-07T07:29:38.134Z,23.88
2024-04-07T07:32:11.759Z,23.92
2024-04-07T07:34:42.685Z,24.04
2024-04-07T07:37:14.489Z,24.05
2024-04-07T07:39:45.163Z,24.03
2024-04-07T07:42:16.814Z,23.98
2024-04-07T07:44:47.446Z,23.89
2024-04-07T07:47:19.202Z,23.79
2024-04-07T07:49:49.938Z,23.73
2024-04-07T07:52:22.008Z,23.66
2024-04-07T07:54:52.434Z,23.56
2024-04-07T07:57:24.089Z,23.41
2024-04-07T07:59:57.520Z,23.30
2024-04-07T08:02:31.613Z,23.29
2024-04-07T08:05:02.063Z,23.26
2024-04-07T08:07:34.090Z,23.38
2024-04-07T08:10:05.131Z,23.54
2024-04-07T08:12:39.442Z,23.66
2024-04-07T08:15:12.732Z,23.69
2024-04-07T08:17:43.172Z,23.76
2024-04-07T08:20:14.810Z,23.86
2024-04-07T08:22:45.959Z,23.85
2024-04-07T08:25:17.719Z,23.78
2024-04-07T08:27:48.052Z,23.72
2024-04-07T08:30:20.113Z,23.72
2024-04-07T08:32:50.554Z,23.81
2024-04-07T08:35:22.295Z,23.96
2024-04-07T08:37:53.160Z,24.04
2024-04-07T08:40:25.985Z,24.02
2024-04-07T08:42:56.443Z,24.02
2024-04-07T08:45:28.208Z,24.04
2024-04-07T08:47:58.518Z,24.05
2024-04-07T08:50:30.694Z,24.07
2024-04-07T08:53:01.099Z,24.11
2024-04-07T08:55:32.976Z,24.13
2024-04-07T08:58:04.733Z,24.07
2024-04-07T09:00:37.865Z,24.06
2024-04-07T09:03:08.747Z,24.15
2024-04-07T09:05:40.926Z,24.29
2024-04-07T09:08:11.349Z,24.41
2024-04-07T09:10:43.131Z,24.49
2024-04-07T09:13:13.746Z,24.56
2024-04-07T09:15:45.493Z,24.61
2024-04-07T09:18:15.855Z,24.69
2024-04-07T09:20:48.200Z,24.77
2024-04-07T09:23:18.514Z,24.78
2024-04-07T09:25:54.569Z,24.77
2024-04-07T09:28:26.330Z,24.75
2024-04-07T09:30:56.751Z,24.72
2024-04-07T09:33:31.176Z,24.76
2024-04-07T09:36:04.578Z,24.83
2024-04-07T09:38:34.893Z,24.87
2024-04-07T09:41:06.651Z,24.94
2024-04-07T09:43:37.080Z,25.05
2024-04-07T09:46:09.141Z,25.11
2024-04-07T09:48:39.881Z,25.13
2024-04-07T09:51:12.915Z,25.12
2024-04-07T09:53:49.241Z,25.11
2024-04-07T09:56:23.987Z,25.17
2024-04-07T09:58:56.847Z,25.19
2024-04-07T10:01:27.679Z,25.19
2024-04-07T10:03:59.439Z,25.22
2024-04-07T10:06:32.318Z,25.19
2024-04-07T10:09:04.070Z,25.20
2024-04-07T10:11:34.497Z,25.20
2024-04-07T10:14:15.585Z,25.11
2024-04-07T10:16:50.564Z,24.95
2024-04-07T10:19:26.064Z,24.82
2024-04-07T10:21:58.742Z,24.83
2024-04-07T10:24:29.168Z,24.95
2024-04-07T10:27:00.917Z,25.09
2024-04-07T10:29:31.949Z,25.22
2024-04-07T10:32:04.643Z,25.32
2024-04-07T10:34:35.387Z,25.42
2024-04-07T10:37:07.849Z,25.52
2024-04-07T10:39:38.281Z,25.62
2024-04-07T10:42:10.239Z,25.62
2024-04-07T10:44:40.776Z,25.64
2024-04-07T10:47:12.841Z,25.71
2024-04-07T10:49:44.497Z,25.82
2024-04-07T10:52:17.741Z,25.89
2024-04-07T10:54:48.209Z,25.97
2024-04-07T10:57:19.958Z,26.06
2024-04-07T10:59:52.596Z,26.10
2024-04-07T11:02:25.828Z,26.13
2024-04-07T11:04:56.555Z,26.15
2024-04-07T11:07:28.428Z,26.16
2024-04-07T11:10:02.947Z,26.25
2024-04-07T11:12:35.788Z,26.26
2024-04-07T11:15:18.292Z,26.23
2024-04-07T11:17:51.627Z,26.22
2024-04-07T11:20:22.169Z,26.23
2024-04-07T11:22:53.924Z,26.28
2024-04-07T11:25:24.786Z,26.31
2024-04-07T11:27:57.033Z,26.25
2024-04-07T11:30:36.399Z,26.15
2024-04-07T11:33:09.170Z,26.08
2024-04-07T11:35:46.439Z,26.04
2024-04-07T11:38:18.504Z,26.10
2024-04-07T11:40:52.105Z,26.20
2024-04-07T11:43:23.344Z,26.29
2024-04-07T11:45:53.867Z,26.36
2024-04-07T11:48:28.266Z,26.42
2024-04-07T11:50:58.926Z,26.47
2024-04-07T11:53:32.697Z,26.52
2024-04-07T11:56:07.944Z,26.53
2024-04-07T11:58:38.598Z,26.49
2024-04-07T12:01:11.187Z,26.53
2024-04-07T12:03:43.396Z,26.58
2024-04-07T12:06:16.633Z,26.60
2024-04-07T12:08:47.164Z,26.63
2024-04-07T12:11:19.119Z,26.66
2024-04-07T12:13:50.801Z,26.71
2024-04-07T12:16:22.544Z,26.76
2024-04-07T12:18:53.062Z,26.84
2024-04-07T12:21:25.138Z,26.94
2024-04-07T12:23:55.559Z,26.97
2024-04-07T12:26:27.594Z,27.00
2024-04-07T12:28:58.785Z,27.02
2024-04-07T12:31:30.622Z,27.06
2024-04-07T12:34:01.198Z,27.02
2024-04-07T12:36:33.744Z,26.99
2024-04-07T12:39:09.767Z,26.98
2024-04-07T12:41:41.950Z,26.94
2024-04-07T12:44:12.985Z,26.91
2024-04-07T12:46:46.006Z,26.88
2024-04-07T12:49:21.637Z,26.82
2024-04-07T12:51:53.485Z,26.80
2024-04-07T12:54:23.930Z,26.80
2024-04-07T12:56:55.873Z,26.80
2024-04-07T12:59:26.406Z,26.80
2024-04-07T13:01:58.266Z,26.84
2024-04-07T13:04:28.894Z,26.86
2024-04-07T13:07:02.052Z,26.78
2024-04-07T13:09:32.609Z,26.75
2024-04-07T13:12:04.996Z,26.75
2024-04-07T13:14:36.565Z,26.74
2024-04-07T13:17:08.320Z,26.76
2024-04-07T13:19:39.361Z,26.75
2024-04-07T13:22:11.605Z,26.72
2024-04-07T13:24:45.109Z,26.74
2024-04-07T13:27:18.715Z,26.73
2024-04-07T13:29:49.248Z,26.69
2024-04-07T13:32:20.987Z,26.66
2024-04-07T13:34:51.833Z,26.61
2024-04-07T13:37:23.792Z,26.57
2024-04-07T13:39:55.630Z,26.54
2024-04-07T13:42:27.511Z,26.49
2024-04-07T13:44:59.513Z,26.45
2024-04-07T13:47:31.490Z,26.46
2024-04-07T13:50:02.286Z,26.48
2024-04-07T13:52:35.816Z,26.45
2024-04-07T13:55:07.069Z,26.43
2024-04-07T13:57:38.995Z,26.41
2024-04-07T14:00:11.857Z,26.40
2024-04-07T14:02:44.643Z,26.35
2024-04-07T14:05:15.310Z,26.33
2024-04-07T14:07:47.127Z,26.32
2024-04-07T14:10:17.657Z,26.28
2024-04-07T14:12:49.322Z,26.25
2024-04-07T14:15:19.963Z,26.21
2024-04-07T14:17:51.801Z,26.19
2024-04-07T14:20:22.338Z,26.15
2024-04-07T14:22:54.194Z,26.12
2024-04-07T14:25:25.024Z,26.11
2024-04-07T14:27:57.199Z,26.10
2024-04-07T14:30:27.729Z,26.09
2024-04-07T14:32:59.471Z,26.03
2024-04-07T14:35:30.519Z,26.00
2024-04-07T14:38:02.079Z,25.99
2024-04-07T14:40:32.829Z,25.96
2024-04-07T14:43:05.687Z,25.93
2024-04-07T14:45:36.443Z,25.89
2024-04-07T14:48:14.954Z,25.85
2024-04-07T14:50:46.791Z,25.84
2024-04-07T14:53:17.824Z,25.82
2024-04-07T14:55:59.118Z,25.80
2024-04-07T14:58:33.546Z,25.80
2024-04-07T15:01:07.761Z,25.81
2024-04-07T15:03:39.445Z,25.80
2024-04-07T15:06:12.095Z,25.77
2024-04-07T15:08:42.516Z,25.75
2024-04-07T15:11:14.754Z,25.73
2024-04-07T15:13:45.220Z,25.69
2024-04-07T15:16:17.177Z,25.66
2024-04-07T15:18:47.913Z,25.62
2024-04-07T15:21:19.881Z,25.58
2024-04-07T15:23:50.303Z,25.54
2024-04-07T15:26:22.376Z,25.51
2024-04-07T15:28:54.897Z,25.47
2024-04-07T15:31:26.701Z,25.43
2024-04-07T15:34:02.279Z,25.38
2024-04-07T15:36:36.146Z,25.32
2024-04-07T15:39:07.500Z,25.26
2024-04-07T15:41:41.218Z,25.20
2024-04-07T15:44:12.272Z,25.15
2024-04-07T15:46:44.006Z,25.09
2024-04-07T15:49:14.729Z,25.04
2024-04-07T15:51:47.828Z,24.99
2024-04-07T15:54:18.455Z,24.94
2024-04-07T15:56:50.221Z,24.89
2024-04-07T15:59:21.741Z,24.84
2024-04-07T16:01:53.743Z,24.78
2024-04-07T16:04:24.659Z,24.73
2024-04-07T16:06:57.678Z,24.66
2024-04-07T16:09:28.166Z,24.58
2024-04-07T16:11:59.950Z,24.47
2024-04-07T16:14:30.994Z,24.38
2024-04-07T16:17:03.466Z,24.30
2024-04-07T16:19:35.395Z,24.23
2024-04-07T16:22:07.274Z,24.15
2024-04-07T16:24:38.314Z,24.06
2024-04-07T16:27:10.475Z,23.99
2024-04-07T16:29:41.016Z,23.90
2024-04-07T16:32:12.793Z,23.82
2024-04-07T16:34:43.509Z,23.75
2024-04-07T16:37:15.473Z,23.68
2024-04-07T16:39:48.965Z,23.59
2024-04-07T16:42:20.622Z,23.52
2024-04-07T16:44:54.343Z,23.45
2024-04-07T16:47:26.178Z,23.36
2024-04-07T16:49:57.428Z,23.27
2024-04-07T16:52:30.022Z,23.18
2024-04-07T16:55:06.121Z,23.11
2024-04-07T16:57:38.320Z,23.03
2024-04-07T17:00:09.787Z,22.94
2024-04-07T17:02:41.647Z,22.87
2024-04-07T17:05:12.549Z,22.79
2024-04-07T17:07:47.195Z,22.72
2024-04-07T17:10:20.195Z,22.61
2024-04-07T17:12:50.710Z,22.50
2024-04-07T17:15:22.894Z,22.38
2024-04-07T17:17:53.508Z,22.27
2024-04-07T17:20:25.271Z,22.15
2024-04-07T17:22:55.594Z,22.03
2024-04-07T17:25:27.459Z,21.93
2024-04-07T17:27:57.992Z,21.82
2024-04-07T17:30:29.858Z,21.71
2024-04-07T17:33:00.470Z,21.61
2024-04-07T17:35:32.329Z,21.50
2024-04-07T17:38:02.975Z,21.41
2024-04-07T17:40:35.130Z,21.33
2024-04-07T17:43:05.562Z,21.24
2024-04-07T17:45:43.587Z,21.18
2024-04-07T17:48:15.424Z,21.11
2024-04-07T17:50:46.264Z,21.04
2024-04-07T17:53:19.748Z,20.99
2024-04-07T17:55:54.360Z,20.94
2024-04-07T17:58:26.648Z,20.90
2024-04-07T18:00:58.966Z,20.90
2024-04-07T18:03:30.787Z,20.90
2024-04-07T18:06:01.417Z,20.91
2024-04-07T18:08:33.594Z,20.93
2024-04-07T18:11:04.514Z,20.96
2024-04-07T18:13:36.276Z,20.97
2024-04-07T18:16:06.917Z,20.95
2024-04-07T18:18:39.085Z,20.91
2024-04-07T18:21:09.603Z,20.86
2024-04-07T18:23:41.676Z,20.81
2024-04-07T18:26:12.297Z,20.77
2024-04-07T18:28:44.054Z,20.73
2024-04-07T18:31:18.471Z,20.69
2024-04-07T18:33:50.438Z,20.66
2024-04-07T18:36:23.621Z,20.64
2024-04-07T18:38:55.695Z,20.62
2024-04-07T18:41:26.246Z,20.60
2024-04-07T18:43:59.625Z,20.60
2024-04-07T18:46:30.155Z,20.62
2024-04-07T18:49:02.105Z,20.63
2024-04-07T18:51:32.527Z,20.63
2024-04-07T18:54:04.596Z,20.63
2024-04-07T18:56:35.223Z,20.62
2024-04-07T18:59:07.204Z,20.60
2024-04-07T19:01:37.816Z,20.59
2024-04-07T19:04:09.789Z,20.58
2024-04-07T19:06:41.123Z,20.58
2024-04-07T19:09:13.801Z,20.56
2024-04-07T19:11:44.227Z,20.54
2024-04-07T19:14:16.214Z,20.51
2024-04-07T19:16:46.834Z,20.47
2024-04-07T19:19:18.580Z,20.43
2024-04-07T19:21:49.433Z,20.39
2024-04-07T19:24:22.011Z,20.35
2024-04-07T19:26:52.541Z,20.31
2024-04-07T19:29:24.872Z,20.29
2024-04-07T19:31:55.549Z,20.26
2024-04-07T19:34:27.700Z,20.22
2024-04-07T19:36:58.336Z,20.19
2024-04-07T19:39:30.186Z,20.14
2024-04-07T19:42:00.627Z,20.10
2024-04-07T19:44:33.822Z,20.05
2024-04-07T19:47:05.256Z,20.01
2024-04-07T19:49:37.015Z,19.96
2024-04-07T19:52:07.437Z,19.92
2024-04-07T19:54:39.194Z,19.89
2024-04-07T19:57:09.625Z,19.85
2024-04-07T19:59:41.384Z,19.83
2024-04-07T20:02:12.559Z,19.80
2024-04-07T20:04:44.282Z,19.77
2024-04-07T20:07:14.805Z,19.74
2024-04-07T20:09:47.184Z,19.70
2024-04-07T20:12:17.712Z,19.66
2024-04-07T20:14:49.673Z,19.63
2024-04-07T20:17:20.836Z,19.59
2024-04-07T20:19:52.566Z,19.55
2024-04-07T20:22:23.093Z,19.52
2024-04-07T20:24:55.032Z,19.51
2024-04-07T20:27:25.600Z,19.50
2024-04-07T20:29:57.648Z,19.52
2024-04-07T20:32:28.253Z,19.51
2024-04-07T20:35:00.049Z,19.52
2024-04-07T20:37:30.575Z,19.52
2024-04-07T20:40:03.056Z,19.53
2024-04-07T20:42:33.573Z,19.52
2024-04-07T20:45:06.370Z,19.52
2024-04-07T20:47:37.017Z,19.52
2024-04-07T20:50:10.284Z,19.52
2024-04-07T20:52:42.417Z,19.51
2024-04-07T20:55:14.317Z,19.52
2024-04-07T20:57:44.729Z,19.51
2024-04-07T21:00:21.366Z,19.48
2024-04-07T21:02:55.932Z,19.45
2024-04-07T21:05:26.622Z,19.44
2024-04-07T21:07:58.314Z,19.43
2024-04-07T21:10:28.746Z,19.41
2024-04-07T21:13:01.223Z,19.39
2024-04-07T21:15:31.643Z,19.35
2024-04-07T21:18:03.090Z,19.30
2024-04-07T21:20:35.534Z,19.25
2024-04-07T21:23:07.326Z,19.21
2024-04-07T21:25:38.158Z,19.17
2024-04-07T21:28:09.733Z,19.12
2024-04-07T21:30:40.446Z,19.10
2024-04-07T21:33:12.208Z,19.09
2024-04-07T21:35:42.638Z,19.07
2024-04-07T21:38:14.383Z,19.06
2024-04-07T21:40:44.812Z,19.05
2024-04-07T21:43:16.487Z,19.03
2024-04-07T21:45:47.820Z,19.02
2024-04-07T21:48:20.086Z,18.98
2024-04-07T21:50:50.613Z,18.98
2024-04-07T21:53:22.586Z,18.97
2024-04-07T21:55:54.132Z,18.97
2024-04-07T21:58:26.199Z,18.96
2024-04-07T22:00:56.639Z,18.97
2024-04-07T22:03:28.379Z,18.96
2024-04-07T22:06:00.260Z,18.96
2024-04-07T22:08:32.050Z,18.96
2024-04-07T22:11:02.838Z,18.94
2024-04-07T22:13:34.479Z,18.92
2024-04-07T22:16:05.234Z,18.90
2024-04-07T22:18:40.053Z,18.88
2024-04-07T22:21:13.138Z,18.85
2024-04-07T22:23:43.674Z,18.82
2024-04-07T22:26:16.000Z,18.79
2024-04-07T22:28:47.146Z,18.76
2024-04-07T22:31:18.741Z,18.74
2024-04-07T22:33:51.419Z,18.71
2024-04-07T22:36:23.987Z,18.67
2024-04-07T22:38:54.417Z,18.64
2024-04-07T22:41:26.096Z,18.59
2024-04-07T22:43:58.859Z,18.54
2024-04-07T22:46:31.322Z,18.48
2024-04-07T22:49:01.761Z,18.43
2024-04-07T22:51:34.334Z,18.37
2024-04-07T22:54:04.759Z,18.29
2024-04-07T22:56:36.423Z,18.22
2024-04-07T22:59:06.837Z,18.18
2024-04-07T23:01:38.597Z,18.13
2024-04-07T23:04:09.328Z,18.08
2024-04-07T23:06:41.085Z,18.03
2024-04-07T23:09:12.642Z,17.97
2024-04-07T23:11:44.302Z,17.92
2024-04-07T23:14:15.028Z,17.88
2024-04-07T23:16:46.777Z,17.86
2024-04-07T23:19:18.472Z,17.84
2024-04-07T23:21:50.096Z,17.85
2024-04-07T23:24:20.615Z,17.86
2024-04-07T23:26:52.689Z,17.89
2024-04-07T23:29:24.083Z,17.92
2024-04-07T23:31:57.017Z,17.92
2024-04-07T23:34:27.654Z,17.92
2024-04-07T23:36:59.316Z,17.93
2024-04-07T23:39:29.624Z,17.94
2024-04-07T23:42:01.592Z,17.94
2024-04-07T23:44:31.932Z,17.96
2024-04-07T23:47:03.786Z,17.96
2024-04-07T23:49:34.728Z,17.97
2024-04-07T23:52:06.993Z,17.96
2024-04-07T23:54:38.132Z,17.97
2024-04-07T23:57:09.792Z,17.98
2024-04-07T23:59:40.718Z,17.97
